createdAt,value
2019-03-18T00:01:35.327Z,4.60
2019-03-18T00:06:38.559Z,2.63
2019-03-18T00:11:41.516Z,3.23
2019-03-18T00:16:44.709Z,2.37
2019-03-18T00:21:47.245Z,2.37
2019-03-18T00:26:50.935Z,2.20
2019-03-18T00:31:54.498Z,2.80
2019-03-18T00:36:57.759Z,2.13
2019-03-18T00:42:00.584Z,4.40
2019-03-18T00:47:03.838Z,2.93
2019-03-18T00:52:07.038Z,3.07
2019-03-18T00:57:10.577Z,2.63
2019-03-18T01:02:13.753Z,2.37
2019-03-18T01:07:17.333Z,1.63
2019-03-18T01:12:20.181Z,2.47
2019-03-18T01:17:23.956Z,2.83
2019-03-18T01:22:27.601Z,1.53
2019-03-18T01:27:31.099Z,1.70
2019-03-18T01:32:34.358Z,1.50
2019-03-18T01:37:37.874Z,1.73
2019-03-18T01:42:41.579Z,2.03
2019-03-18T01:47:44.798Z,3.80
2019-03-18T01:52:48.312Z,2.90
2019-03-18T01:57:50.851Z,3.73
2019-03-18T02:02:52.994Z,2.40
2019-03-18T02:07:55.861Z,2.87
2019-03-18T02:12:58.692Z,3.13
2019-03-18T02:18:01.216Z,3.53
2019-03-18T02:23:03.989Z,2.27
2019-03-18T02:28:09.079Z,3.33
2019-03-18T02:33:12.562Z,2.77
2019-03-18T02:38:15.360Z,3.17
2019-03-18T02:43:18.853Z,3.30
2019-03-18T02:48:22.161Z,4.03
2019-03-18T02:53:25.102Z,4.00
2019-03-18T02:58:27.995Z,5.63
2019-03-18T03:03:31.511Z,4.23
2019-03-18T03:08:34.826Z,3.80
2019-03-18T03:13:38.330Z,3.80
2019-03-18T03:18:41.643Z,4.27
2019-03-18T03:23:44.848Z,4.50
2019-03-18T03:28:48.360Z,4.27
2019-03-18T03:33:51.488Z,4.50
2019-03-18T03:38:54.401Z,5.27
2019-03-18T03:43:57.610Z,4.80
2019-03-18T03:49:00.799Z,4.10
2019-03-18T03:54:03.724Z,4.90
2019-03-18T03:59:06.823Z,3.20
2019-03-18T04:04:10.042Z,2.90
2019-03-18T04:09:13.552Z,2.80
2019-03-18T04:14:16.776Z,2.20
2019-03-18T04:19:19.667Z,2.50
2019-03-18T04:24:22.533Z,2.20
2019-03-18T04:29:25.368Z,2.73
2019-03-18T04:34:28.380Z,3.00
2019-03-18T04:39:31.799Z,3.37
2019-03-18T04:44:34.997Z,3.70
2019-03-18T04:49:38.183Z,4.87
2019-03-18T04:54:40.666Z,4.20
2019-03-18T04:59:44.188Z,3.93
2019-03-18T05:04:46.734Z,2.83
2019-03-18T05:09:49.614Z,3.60
2019-03-18T05:14:52.819Z,4.43
2019-03-18T05:19:55.622Z,4.47
2019-03-18T05:24:59.129Z,4.30
2019-03-18T05:30:01.942Z,4.50
2019-03-18T05:35:05.312Z,5.80
2019-03-18T05:40:08.213Z,5.13
2019-03-18T05:45:11.464Z,4.17
2019-03-18T05:50:14.991Z,4.67
2019-03-18T05:55:17.571Z,6.90
2019-03-18T06:00:20.847Z,6.60
2019-03-18T06:05:24.023Z,5.63
2019-03-18T06:10:27.213Z,5.63
2019-03-18T06:15:30.373Z,4.70
2019-03-18T06:20:33.815Z,5.93
2019-03-18T06:25:37.054Z,5.97
2019-03-18T06:30:40.267Z,5.20
2019-03-18T06:35:43.467Z,4.30
2019-03-18T06:40:46.957Z,4.20
2019-03-18T06:45:50.208Z,4.33
2019-03-18T06:50:53.401Z,3.73
2019-03-18T06:55:56.292Z,3.50
2019-03-18T07:00:59.174Z,4.77
2019-03-18T07:06:02.689Z,4.30
2019-03-18T07:11:06.227Z,5.00
2019-03-18T07:16:09.151Z,5.30
2019-03-18T07:21:14.612Z,3.57
2019-03-18T07:26:16.799Z,4.53
2019-03-18T07:31:19.703Z,4.07
2019-03-18T07:36:22.595Z,6.13
2019-03-18T07:41:25.512Z,4.60
2019-03-18T07:46:28.709Z,5.17
2019-03-18T07:51:32.210Z,5.00
2019-03-18T07:56:35.373Z,4.30
2019-03-18T08:01:38.339Z,4.80
2019-03-18T08:06:41.243Z,4.40
2019-03-18T08:11:44.479Z,4.80
2019-03-18T08:16:47.630Z,5.03
2019-03-18T08:21:50.582Z,3.70
2019-03-18T08:26:54.078Z,2.27
2019-03-18T08:31:57.293Z,3.17
2019-03-18T08:37:00.534Z,3.13
2019-03-18T08:42:03.381Z,3.90
2019-03-18T08:47:06.639Z,2.90
2019-03-18T08:52:09.533Z,2.73
2019-03-18T08:57:12.421Z,2.33
2019-03-18T09:02:15.406Z,2.83
2019-03-18T09:07:18.982Z,4.00
2019-03-18T09:12:22.577Z,3.10
2019-03-18T09:17:25.470Z,2.90
2019-03-18T09:22:28.430Z,2.90
2019-03-18T09:27:31.685Z,3.20
2019-03-18T09:32:34.894Z,3.77
2019-03-18T09:37:37.905Z,3.80
2019-03-18T09:42:41.625Z,4.13
2019-03-18T09:47:44.897Z,4.13
2019-03-18T09:52:48.149Z,4.70
2019-03-18T09:57:51.659Z,5.10
2019-03-18T10:02:55.004Z,6.60
2019-03-18T10:07:57.872Z,6.10
2019-03-18T10:13:01.049Z,6.00
2019-03-18T10:18:04.317Z,6.13
2019-03-18T10:23:07.515Z,5.63
2019-03-18T10:28:10.408Z,5.40
2019-03-18T10:33:13.309Z,4.50
2019-03-18T10:38:16.534Z,5.20
2019-03-18T10:43:20.093Z,3.63
2019-03-18T10:48:23.356Z,2.77
2019-03-18T10:53:26.656Z,2.33
2019-03-18T10:58:29.197Z,3.33
2019-03-18T11:03:32.108Z,3.90
2019-03-18T11:08:35.345Z,3.03
2019-03-18T11:13:38.878Z,4.13
2019-03-18T11:18:42.093Z,4.10
2019-03-18T11:23:45.276Z,4.20
2019-03-18T11:28:48.837Z,3.33
2019-03-18T11:33:52.133Z,4.83
2019-03-18T11:38:55.329Z,3.10
2019-03-18T11:43:58.860Z,4.10
2019-03-18T11:49:02.057Z,5.13
2019-03-18T11:54:05.546Z,5.80
2019-03-18T11:59:08.798Z,3.87
2019-03-18T12:04:12.505Z,3.77
2019-03-18T12:09:15.110Z,4.13
2019-03-18T12:14:18.150Z,3.70
2019-03-18T12:19:23.130Z,3.30
2019-03-18T12:24:26.567Z,4.87
2019-03-18T12:29:29.589Z,4.30
2019-03-18T12:34:32.765Z,3.97
2019-03-18T12:39:36.335Z,5.43
2019-03-18T12:44:39.884Z,3.70
2019-03-18T12:49:42.835Z,4.40
2019-03-18T12:54:46.425Z,5.07
2019-03-18T12:59:49.324Z,4.33
2019-03-18T13:04:52.285Z,4.73
2019-03-18T13:09:55.177Z,5.23
2019-03-18T13:14:58.504Z,6.13
2019-03-18T13:20:01.799Z,3.10
2019-03-18T13:25:05.983Z,3.23
2019-03-18T13:30:11.353Z,3.23
2019-03-18T13:35:14.611Z,4.20
2019-03-18T13:40:18.006Z,4.37
2019-03-18T13:45:21.191Z,3.67
2019-03-18T13:50:24.352Z,4.77
2019-03-18T13:55:27.901Z,3.60
2019-03-18T14:00:31.309Z,5.00
2019-03-18T14:05:35.193Z,4.03
2019-03-18T14:10:38.091Z,5.80
2019-03-18T14:15:41.289Z,4.43
2019-03-18T14:20:44.518Z,4.40
2019-03-18T14:25:48.044Z,3.60
2019-03-18T14:30:50.948Z,3.33
2019-03-18T14:36:00.898Z,3.60
2019-03-18T14:41:04.429Z,4.53
2019-03-18T14:46:06.962Z,3.87
2019-03-18T14:51:10.240Z,3.63
2019-03-18T14:56:14.367Z,3.17
2019-03-18T15:01:17.647Z,2.80
2019-03-18T15:06:20.184Z,3.77
2019-03-18T15:11:23.429Z,5.07
2019-03-18T15:16:25.932Z,4.57
2019-03-18T15:21:29.495Z,4.50
2019-03-18T15:26:32.762Z,5.03
2019-03-18T15:31:35.616Z,6.70
2019-03-18T15:36:38.863Z,3.77
2019-03-18T15:41:41.763Z,2.93
2019-03-18T15:46:44.984Z,4.50
2019-03-18T15:51:48.286Z,3.80
2019-03-18T15:56:51.578Z,4.87
2019-03-18T16:01:54.806Z,4.80
2019-03-18T16:06:58.083Z,4.47
2019-03-18T16:12:01.097Z,4.73
2019-03-18T16:17:04.317Z,5.30
2019-03-18T16:22:07.711Z,5.77
2019-03-18T16:27:11.001Z,4.20
2019-03-18T16:32:14.195Z,5.57
2019-03-18T16:37:17.207Z,4.43
2019-03-18T16:42:20.740Z,5.57
2019-03-18T16:47:23.256Z,6.10
2019-03-18T16:52:35.164Z,6.53
2019-03-18T16:57:31.404Z,5.00
2019-03-18T17:02:36.729Z,4.90
2019-03-18T17:07:41.113Z,5.20
2019-03-18T17:12:44.079Z,5.27
2019-03-18T17:17:47.476Z,5.47
2019-03-18T17:22:51.058Z,4.80
2019-03-18T17:27:54.266Z,4.90
2019-03-18T17:32:57.474Z,4.90
2019-03-18T17:38:00.700Z,4.80
2019-03-18T17:43:03.965Z,4.17
2019-03-18T17:48:07.218Z,4.70
2019-03-18T17:53:10.697Z,3.90
2019-03-18T17:58:13.907Z,4.40
2019-03-18T18:03:18.245Z,3.70
2019-03-18T18:08:21.920Z,3.90
2019-03-18T18:13:25.211Z,5.53
2019-03-18T18:18:28.095Z,5.40
2019-03-18T18:23:32.214Z,5.87
2019-03-18T18:28:35.455Z,5.60
2019-03-18T18:33:40.906Z,4.90
2019-03-18T18:38:44.458Z,6.00
2019-03-18T18:43:48.171Z,4.40
2019-03-18T18:48:51.563Z,5.40
2019-03-18T18:53:54.918Z,6.83
2019-03-18T18:58:57.567Z,5.43
2019-03-18T19:04:01.232Z,6.70
2019-03-18T19:09:06.574Z,5.50
2019-03-18T19:14:10.589Z,5.77
2019-03-18T19:19:17.896Z,5.23
2019-03-18T19:24:25.337Z,5.20
2019-03-18T19:29:31.733Z,5.23
2019-03-18T19:34:40.436Z,5.00
2019-03-18T19:39:49.536Z,5.13
2019-03-18T19:45:03.579Z,4.40
2019-03-18T19:50:09.885Z,5.60
2019-03-18T19:55:17.823Z,5.53
2019-03-18T20:00:25.944Z,4.33
2019-03-18T20:05:36.815Z,4.33
2019-03-18T20:10:44.937Z,5.60
2019-03-18T20:15:52.546Z,4.00
2019-03-18T20:20:59.710Z,3.80
2019-03-18T20:26:08.551Z,3.57
2019-03-18T20:31:25.366Z,4.47
2019-03-18T20:36:26.413Z,4.60
2019-03-18T20:41:34.273Z,4.80
2019-03-18T20:46:40.930Z,5.57
2019-03-18T20:51:47.294Z,4.90
2019-03-18T20:56:53.709Z,4.50
2019-03-18T21:01:57.811Z,5.00
2019-03-18T21:07:01.313Z,4.57
2019-03-18T21:12:04.892Z,4.50
2019-03-18T21:17:08.315Z,4.90
2019-03-18T21:22:12.101Z,5.57
2019-03-18T21:27:15.316Z,6.70
2019-03-18T21:32:18.619Z,6.00
2019-03-18T21:37:21.896Z,5.97
2019-03-18T21:42:25.458Z,4.67
2019-03-18T21:47:29.040Z,4.37
2019-03-18T21:52:32.538Z,3.63
2019-03-18T21:57:35.510Z,3.40
2019-03-18T22:02:38.820Z,4.60
2019-03-18T22:07:42.080Z,5.37
2019-03-18T22:12:46.291Z,4.00
2019-03-18T22:17:49.325Z,5.10
2019-03-18T22:22:53.798Z,4.40
2019-03-18T22:27:57.308Z,4.33
2019-03-18T22:33:01.991Z,3.90
2019-03-18T22:38:05.390Z,4.03
2019-03-18T22:43:08.279Z,5.10
2019-03-18T22:48:11.937Z,3.60
2019-03-18T22:53:15.513Z,4.70
2019-03-18T22:58:19.486Z,4.30
2019-03-18T23:03:23.165Z,4.00
2019-03-18T23:08:26.881Z,4.23
2019-03-18T23:13:30.395Z,3.90
2019-03-18T23:18:33.284Z,3.63
2019-03-18T23:23:36.872Z,4.20
2019-03-18T23:28:40.545Z,4.83
2019-03-18T23:33:44.117Z,3.90
2019-03-18T23:38:47.066Z,4.20
2019-03-18T23:43:49.554Z,4.33
2019-03-18T23:48:52.697Z,4.10
2019-03-18T23:53:56.276Z,5.20
2019-03-18T23:58:59.745Z,4.03
